Pagrindinis puslapis
METAR-TAF:

METAR-TAF

Oro uostai :

Lycksele, Švedija

platuma: 64-32-51N, ilguma: 018-43-03E, Aukštis: 211 m

Dabartinis oras

Ataskaita buvo paskelbta 1 valandą ir 4 minutes, ne 21:20 UTC
Vėjas 4 kt iš Rytų, svyruoja nuo Rytų ir Pietų/Pietryčių
Temperatūra 16°C
Drėgmė 72%
Slėgis 1014 hPa
Matomumas 10 km arba daugiau

METAR: ESNL 142120Z AUTO 10004KT 080V150 9999 OVC026/// 16/11 Q1014

Laikas: 00:24 (22:24 UTC)


TAF: trūkstamas

Orai ataskaitas ir orų prognozės (METAR, TAF).

turimą stotys yra geltonos ir raudonos taškus žemėlapyje.

Perkelti pele per norėdami pamatyti stoties vardą.

Tada spustelėkite, norėdami matyti oro stebėjimo ir prognozės.

Norėdami pakeisti žemėlapį: spustelėkite ant žalios mygtukų su juodo kryžiaus žemyn,; žalią mygtuką su brūkšneliu, jei norite nutolinti; arba žalių rodyklių gretimoms žemėlapius.


METAR-TAF: